createdAt,value
2023-05-02T00:01:07.775Z,0.00
2023-05-02T00:12:22.198Z,0.00
2023-05-02T00:17:22.263Z,0.00
2023-05-02T00:22:22.065Z,0.00
2023-05-02T00:27:22.044Z,0.00
2023-05-02T00:32:22.003Z,0.00
2023-05-02T00:37:21.881Z,0.00
2023-05-02T00:42:21.820Z,0.00
2023-05-02T00:47:21.772Z,0.00
2023-05-02T00:52:21.658Z,0.00
2023-05-02T00:57:21.659Z,0.00
2023-05-02T01:02:21.597Z,0.00
2023-05-02T01:07:21.474Z,0.00
2023-05-02T01:12:21.386Z,0.00
2023-05-02T01:17:21.453Z,0.00
2023-05-02T01:22:21.291Z,0.00
2023-05-02T01:27:21.230Z,0.00
2023-05-02T01:32:21.151Z,0.00
2023-05-02T01:37:21.121Z,0.00
2023-05-02T01:42:21.027Z,0.00
2023-05-02T01:47:21.038Z,0.00
2023-05-02T01:52:20.861Z,0.00
2023-05-02T01:57:20.826Z,0.00
2023-05-02T02:02:20.752Z,0.00
2023-05-02T02:07:20.736Z,0.00
2023-05-02T02:12:20.614Z,0.00
2023-05-02T02:17:20.558Z,0.00
2023-05-02T02:22:20.479Z,0.00
2023-05-02T02:27:20.463Z,0.00
2023-05-02T02:32:20.388Z,0.00
2023-05-02T02:37:20.312Z,0.00
2023-05-02T02:42:20.204Z,0.00
2023-05-02T02:47:20.155Z,0.00
2023-05-02T02:52:20.142Z,0.00
2023-05-02T02:57:20.038Z,0.00
2023-05-02T03:02:19.964Z,0.00
2023-05-02T03:07:19.874Z,0.00
2023-05-02T03:12:19.844Z,0.00
2023-05-02T03:17:20.436Z,0.00
2023-05-02T03:22:19.708Z,0.00
2023-05-02T03:27:19.641Z,0.00
2023-05-02T03:32:19.557Z,0.00
2023-05-02T03:37:19.500Z,0.00
2023-05-02T03:42:19.429Z,0.00
2023-05-02T03:47:19.371Z,0.00
2023-05-02T03:52:19.271Z,0.00
2023-05-02T03:57:19.217Z,0.00
2023-05-02T04:02:19.266Z,0.00
2023-05-02T04:07:19.114Z,0.00
2023-05-02T04:12:19.018Z,0.00
2023-05-02T04:17:48.184Z,0.00
2023-05-02T04:22:40.418Z,0.00
2023-05-02T04:27:40.343Z,0.00
2023-05-02T04:32:40.347Z,0.00
2023-05-02T04:37:40.207Z,0.00
2023-05-02T04:42:40.178Z,0.00
2023-05-02T04:47:40.189Z,0.00
2023-05-02T04:52:40.011Z,5.62
2023-05-02T04:57:39.948Z,0.00
2023-05-02T05:02:39.932Z,5.62
2023-05-02T05:07:39.759Z,5.62
2023-05-02T05:12:39.734Z,5.62
2023-05-02T05:17:39.753Z,5.62
2023-05-02T05:22:39.618Z,5.62
2023-05-02T05:27:39.511Z,5.62
2023-05-02T05:32:39.527Z,5.62
2023-05-02T05:37:39.414Z,5.62
2023-05-02T05:42:39.438Z,5.62
2023-05-02T05:47:39.395Z,5.62
2023-05-02T05:52:39.203Z,5.62
2023-05-02T05:57:39.127Z,5.62
2023-05-02T06:02:39.240Z,5.62
2023-05-02T06:07:39.004Z,16.88
2023-05-02T06:12:38.933Z,16.88
2023-05-02T06:17:38.939Z,22.50
2023-05-02T06:22:38.796Z,16.88
2023-05-02T06:27:38.725Z,11.25
2023-05-02T06:32:38.713Z,22.50
2023-05-02T06:37:38.601Z,22.50
2023-05-02T06:42:38.570Z,22.50
2023-05-02T06:47:38.539Z,16.88
2023-05-02T06:52:38.404Z,16.88
2023-05-02T06:57:38.297Z,16.88
2023-05-02T07:02:38.379Z,22.50
2023-05-02T07:07:38.163Z,28.12
2023-05-02T07:12:38.126Z,45.00
2023-05-02T07:17:38.061Z,56.25
2023-05-02T07:22:37.969Z,56.25
2023-05-02T07:27:37.937Z,50.62
2023-05-02T07:32:37.948Z,84.38
2023-05-02T07:37:37.824Z,101.25
2023-05-02T07:42:37.798Z,168.75
2023-05-02T07:47:37.759Z,78.75
2023-05-02T07:52:37.644Z,61.88
2023-05-02T07:57:37.539Z,61.88
2023-05-02T08:02:37.609Z,135.00
2023-05-02T08:07:37.540Z,151.88
2023-05-02T08:12:37.320Z,225.00
2023-05-02T08:17:37.283Z,939.38
2023-05-02T08:22:37.196Z,174.38
2023-05-02T08:27:37.114Z,236.25
2023-05-02T08:32:37.152Z,821.25
2023-05-02T08:37:37.007Z,270.00
2023-05-02T08:42:36.949Z,185.62
2023-05-02T08:47:36.919Z,236.25
2023-05-02T08:52:36.794Z,247.50
2023-05-02T08:57:36.788Z,230.62
2023-05-02T09:02:36.715Z,680.62
2023-05-02T09:07:36.917Z,196.88
2023-05-02T09:12:36.528Z,112.50
2023-05-02T09:17:36.553Z,78.75
2023-05-02T09:22:36.421Z,84.38
2023-05-02T09:27:36.358Z,95.62
2023-05-02T09:32:36.347Z,146.25
2023-05-02T09:37:36.259Z,180.00
2023-05-02T09:42:36.139Z,208.12
2023-05-02T09:47:36.099Z,247.50
2023-05-02T09:52:35.988Z,241.88
2023-05-02T09:57:35.935Z,174.38
2023-05-02T10:02:36.117Z,213.75
2023-05-02T10:07:35.784Z,202.50
2023-05-02T10:12:35.713Z,191.25
2023-05-02T10:17:35.738Z,191.25
2023-05-02T10:22:35.589Z,230.62
2023-05-02T10:27:35.569Z,253.12
2023-05-02T10:32:35.525Z,230.62
2023-05-02T10:37:35.431Z,135.00
2023-05-02T10:42:35.396Z,129.38
2023-05-02T10:47:35.321Z,140.62
2023-05-02T10:52:35.191Z,157.50
2023-05-02T10:57:35.171Z,157.50
2023-05-02T11:02:35.175Z,213.75
2023-05-02T11:07:35.003Z,219.38
2023-05-02T11:12:34.946Z,168.75
2023-05-02T11:17:34.972Z,202.50
2023-05-02T11:22:35.161Z,264.38
2023-05-02T11:27:34.734Z,196.88
2023-05-02T11:32:34.714Z,241.88
2023-05-02T11:37:34.633Z,241.88
2023-05-02T11:42:34.542Z,151.88
2023-05-02T11:47:34.575Z,118.12
2023-05-02T11:52:34.445Z,168.75
2023-05-02T11:57:34.333Z,376.88
2023-05-02T12:02:34.347Z,168.75
2023-05-02T12:07:34.232Z,191.25
2023-05-02T12:12:34.123Z,298.12
2023-05-02T12:17:34.082Z,371.25
2023-05-02T12:22:34.007Z,270.00
2023-05-02T12:27:33.934Z,292.50
2023-05-02T12:32:33.923Z,230.62
2023-05-02T12:37:33.840Z,146.25
2023-05-02T12:42:33.720Z,168.75
2023-05-02T12:47:33.714Z,157.50
2023-05-02T12:52:33.650Z,151.88
2023-05-02T12:57:33.527Z,292.50
2023-05-02T13:02:33.514Z,213.75
2023-05-02T13:07:33.410Z,163.12
2023-05-02T13:12:33.317Z,135.00
2023-05-02T13:17:33.474Z,123.75
2023-05-02T13:22:33.237Z,106.88
2023-05-02T13:27:33.120Z,129.38
2023-05-02T13:32:33.151Z,157.50
2023-05-02T13:37:33.035Z,129.38
2023-05-02T13:42:32.922Z,140.62
2023-05-02T13:47:32.944Z,151.88
2023-05-02T13:52:32.823Z,112.50
2023-05-02T13:57:32.738Z,202.50
2023-05-02T14:02:32.723Z,101.25
2023-05-02T14:07:32.647Z,118.12
2023-05-02T14:12:32.557Z,101.25
2023-05-02T14:17:32.554Z,84.38
2023-05-02T14:22:32.504Z,90.00
2023-05-02T14:27:32.336Z,112.50
2023-05-02T14:32:32.298Z,202.50
2023-05-02T14:37:32.232Z,208.12
2023-05-02T14:42:32.129Z,191.25
2023-05-02T14:47:32.247Z,101.25
2023-05-02T14:52:32.064Z,90.00
2023-05-02T14:57:32.047Z,129.38
2023-05-02T15:02:31.965Z,180.00
2023-05-02T15:07:31.952Z,174.38
2023-05-02T15:12:31.740Z,118.12
2023-05-02T15:17:31.688Z,118.12
2023-05-02T15:22:31.603Z,106.88
2023-05-02T15:27:31.547Z,90.00
2023-05-02T15:32:31.521Z,84.38
2023-05-02T15:37:31.421Z,84.38
2023-05-02T15:42:31.400Z,135.00
2023-05-02T15:47:31.403Z,129.38
2023-05-02T15:52:31.285Z,140.62
2023-05-02T15:57:31.150Z,140.62
2023-05-02T16:02:31.113Z,129.38
2023-05-02T16:07:31.064Z,123.75
2023-05-02T16:12:31.234Z,101.25
2023-05-02T16:17:30.894Z,56.25
2023-05-02T16:22:30.830Z,61.88
2023-05-02T16:27:30.757Z,78.75
2023-05-02T16:32:30.886Z,67.50
2023-05-02T16:37:30.618Z,78.75
2023-05-02T16:42:30.556Z,73.12
2023-05-02T16:47:30.500Z,73.12
2023-05-02T16:52:30.702Z,73.12
2023-05-02T16:57:30.357Z,45.00
2023-05-02T17:02:30.371Z,61.88
2023-05-02T17:07:30.306Z,61.88
2023-05-02T17:12:30.156Z,61.88
2023-05-02T17:17:30.182Z,56.25
2023-05-02T17:22:30.033Z,50.62
2023-05-02T17:27:30.729Z,50.62
2023-05-02T17:32:29.965Z,45.00
2023-05-02T17:37:29.821Z,39.38
2023-05-02T17:42:29.736Z,39.38
2023-05-02T17:47:29.808Z,33.75
2023-05-02T17:52:29.713Z,33.75
2023-05-02T17:57:29.614Z,50.62
2023-05-02T18:02:29.623Z,56.25
2023-05-02T18:07:29.448Z,39.38
2023-05-02T18:12:29.383Z,39.38
2023-05-02T18:17:29.403Z,22.50
2023-05-02T18:22:29.232Z,11.25
2023-05-02T18:27:29.198Z,11.25
2023-05-02T18:32:29.144Z,5.62
2023-05-02T18:37:29.078Z,5.62
2023-05-02T18:42:29.017Z,0.00
2023-05-02T18:47:28.967Z,0.00
2023-05-02T18:52:28.851Z,0.00
2023-05-02T18:57:28.748Z,0.00
2023-05-02T19:02:28.774Z,0.00
2023-05-02T19:07:28.651Z,0.00
2023-05-02T19:12:28.605Z,0.00
2023-05-02T19:17:28.610Z,0.00
2023-05-02T19:22:28.451Z,0.00
2023-05-02T19:27:28.360Z,0.00
2023-05-02T19:32:28.326Z,0.00
2023-05-02T19:37:28.294Z,0.00
2023-05-02T19:42:28.192Z,0.00
2023-05-02T19:47:28.178Z,0.00
2023-05-02T19:52:28.052Z,0.00
2023-05-02T19:57:27.977Z,0.00
2023-05-02T20:02:28.061Z,0.00
2023-05-02T20:07:27.858Z,0.00
2023-05-02T20:12:27.766Z,0.00
2023-05-02T20:17:27.827Z,0.00
2023-05-02T20:22:27.670Z,0.00
2023-05-02T20:27:27.546Z,0.00
2023-05-02T20:32:27.562Z,0.00
2023-05-02T20:37:27.450Z,0.00
2023-05-02T20:42:27.425Z,0.00
2023-05-02T20:47:27.333Z,0.00
2023-05-02T20:52:27.246Z,0.00
2023-05-02T20:57:27.230Z,0.00
2023-05-02T21:02:27.137Z,0.00
2023-05-02T21:07:27.059Z,0.00
2023-05-02T21:12:27.016Z,0.00
2023-05-02T21:17:26.911Z,0.00
2023-05-02T21:22:26.904Z,0.00
2023-05-02T21:27:26.809Z,0.00
2023-05-02T21:32:26.774Z,0.00
2023-05-02T21:37:26.644Z,0.00
2023-05-02T21:42:26.592Z,0.00
2023-05-02T21:47:26.538Z,0.00
2023-05-02T21:52:26.417Z,0.00
2023-05-02T21:57:26.354Z,0.00
2023-05-02T22:02:26.389Z,0.00
2023-05-02T22:07:26.231Z,0.00
2023-05-02T22:12:26.179Z,0.00
2023-05-02T22:17:27.126Z,0.00
2023-05-02T22:22:26.062Z,0.00
2023-05-02T22:27:25.964Z,0.00
2023-05-02T22:32:26.622Z,0.00
2023-05-02T22:37:25.831Z,0.00
2023-05-02T22:42:25.787Z,0.00
2023-05-02T22:47:25.740Z,0.00
2023-05-02T22:52:25.684Z,0.00
2023-05-02T22:57:25.585Z,0.00
2023-05-02T23:02:25.599Z,0.00
2023-05-02T23:07:25.446Z,0.00
2023-05-02T23:12:26.237Z,0.00
2023-05-02T23:17:25.329Z,0.00
2023-05-02T23:22:25.290Z,0.00
2023-05-02T23:27:25.188Z,0.00
2023-05-02T23:32:25.100Z,0.00
2023-05-02T23:37:25.053Z,0.00
2023-05-02T23:42:25.004Z,0.00
2023-05-02T23:47:24.941Z,0.00
2023-05-02T23:52:24.847Z,0.00
2023-05-02T23:57:24.791Z,0.00
